• Join FlightAware (Why Join?)
  • Login
  • US Flag 
10:30PM EST


 

Airport Tracker/Info


-or-


 

Live Flight TrackerFlight Track Log ✈ RPA3237 ✈ 22-May-2013 ✈ KDCA - KMSY

Flight Track Log - Related Links

Times and Time Zones

All times are in EDT time to prevent confusion due to time zone crossing. See the RPA3237 flight status page for this flight to view local times or setup timezone preferences in your user account.

Time Position Orientation Groundspeed Altitude Reporting Facility
EDT Latitude Longitude Course Direction KTS MPH feet Rate Location/Type
02:29PM 38.8333 -77.0333 236° Southwest 153 176 800  Level Potomac TRACON
02:30PM 38.7833 -77.0333 180° South 200 230 2,300 1,680 Climbing Potomac TRACON
02:31PM 38.7500 -77.0833 229° Southwest 251 289 4,200 1,800 Climbing Potomac TRACON
02:32PM 38.6141 -77.4744 247° West  Level FlightAware Approximate
02:32PM 38.7367 -77.1486 255° West 275 316 5,200  Level Washington Center
02:33PM 38.5688 -77.5958 237° Southwest  Level FlightAware Approximate
02:33PM 38.7269 -77.2494 263° West 280 322 7,800  Level Washington Center
02:34PM 38.5071 -77.7049 233° Southwest  Level FlightAware Approximate
02:34PM 38.7506 -77.3378 289° West 290 334 10,300  Level Washington Center
02:34PM 38.7667 -77.3833 294° West 294 338 11,400 2,100 Climbing Potomac TRACON
02:35PM 38.4436 -77.8110 236° Southwest  Level FlightAware Approximate
02:35PM 38.7167 -77.4667 232° Southwest 298 343 13,400  Level Potomac TRACON
02:36PM 38.6667 -77.5333 226° Southwest 300 345 15,600 1,500 Climbing Potomac TRACON
02:38PM 38.5683 -77.6575 225° Southwest 300 345 17,300 960 Climbing Washington Center
02:39PM 38.4958 -77.7511 225° Southwest 330 380 18,200 1,020 Climbing Washington Center
02:40PM 38.4375 -77.8606 236° Southwest 362 417 19,400 1,320 Climbing Washington Center
02:41PM 38.3811 -77.9756 238° Southwest 380 437 20,800 1,200 Climbing Washington Center
02:42PM 38.3328 -78.0931 242° Southwest 387 445 21,900 1,140 Climbing Washington Center
02:43PM 38.2800 -78.2183 242° Southwest 393 452 23,100 1,320 Climbing Washington Center
02:44PM 38.2294 -78.3408 242° Southwest 393 452 24,600 1,800 Climbing Washington Center
02:45PM 38.1764 -78.4631 241° Southwest 393 452 26,700 1,620 Climbing Washington Center
02:46PM 38.1319 -78.5747 243° Southwest 393 452 27,800 960 Climbing Washington Center
02:47PM 38.0808 -78.6994 243° Southwest 393 452 28,700 900 Climbing Washington Center
02:48PM 38.0253 -78.8261 241° Southwest 405 466 29,700 960 Climbing Washington Center
02:49PM 37.9653 -78.9686 242° Southwest 410 472 30,700 1,020 Climbing Washington Center
02:50PM 37.9072 -79.1003 241° Southwest 415 478 31,800 960 Climbing Washington Center
02:51PM 37.8472 -79.2261 239° Southwest 415 478 32,600 780 Climbing Washington Center
02:52PM 37.7894 -79.3392 237° Southwest 421 484 33,400 780 Climbing Washington Center
02:53PM 37.7292 -79.4622 238° Southwest 426 490 34,300 900 Climbing Washington Center
02:54PM 37.6581 -79.5950 236° Southwest 426 490 35,200 720 Climbing Washington Center
02:55PM 37.5975 -79.7228 239° Southwest 426 490 35,800 360 Climbing Washington Center
02:56PM 37.5347 -79.8425 237° Southwest 426 490 36,000 60 Climbing Washington Center
02:57PM 37.4786 -79.9572 238° Southwest 431 496 36,000  Level Washington Center
02:58PM 37.3672 -80.1692 237° Southwest 433 498 36,000  Level Atlanta Center
02:59PM 37.2933 -80.2772 229° Southwest 428 493 36,000  Level Atlanta Center
03:00PM 37.2133 -80.3825 226° Southwest 421 484 36,000  Level Atlanta Center
03:01PM 37.1494 -80.4844 232° Southwest 421 484 36,000  Level Atlanta Center
03:02PM 37.0864 -80.6097 238° Southwest 421 484 36,000  Level Atlanta Center
03:03PM 37.0250 -80.7292 237° Southwest 427 491 36,000  Level Atlanta Center
03:04PM 36.9658 -80.8511 239° Southwest 427 491 36,000  Level Atlanta Center
03:05PM 36.8983 -80.9839 238° Southwest 420 483 36,000  Level Atlanta Center
03:06PM 36.8367 -81.1081 238° Southwest 420 483 36,000  Level Atlanta Center
03:07PM 36.7769 -81.2269 238° Southwest 415 478 36,000  Level Atlanta Center
03:08PM 36.7269 -81.3322 239° Southwest 408 470 36,000  Level Atlanta Center
03:09PM 36.6672 -81.4533 238° Southwest 408 470 36,000  Level Atlanta Center
03:10PM 36.6069 -81.5717 238° Southwest 413 475 36,000  Level Atlanta Center
03:11PM 36.5428 -81.6925 237° Southwest 419 482 36,000  Level Atlanta Center
03:12PM 36.4803 -81.8208 239° Southwest 419 482 36,000  Level Atlanta Center
03:13PM 36.4133 -81.9206 230° Southwest 419 482 36,000  Level Atlanta Center
03:14PM 36.3358 -82.0233 227° Southwest 414 476 36,000  Level Atlanta Center
03:15PM 36.2625 -82.1333 230° Southwest 414 476 36,000  Level Atlanta Center
03:16PM 36.2100 -82.2581 242° Southwest 419 482 36,000  Level Atlanta Center
03:17PM 36.1514 -82.3803 239° Southwest 419 482 36,000  Level Atlanta Center
03:18PM 36.0925 -82.4994 239° Southwest 424 488 36,000  Level Atlanta Center
03:19PM 36.0314 -82.6214 238° Southwest 419 482 36,000  Level Atlanta Center
03:20PM 35.9681 -82.7533 239° Southwest 413 475 36,000  Level Atlanta Center
03:21PM 35.9131 -82.8772 241° Southwest 408 470 36,000  Level Atlanta Center
03:22PM 35.9017 -83.0211 264° West 415 478 36,000  Level Atlanta Center
03:23PM 35.8967 -83.1672 268° West 429 494 36,000  Level Atlanta Center
03:24PM 35.8872 -83.3083 265° West 429 494 36,000  Level Atlanta Center
03:25PM 35.8692 -83.4467 261° West 423 487 36,000  Level Atlanta Center
03:26PM 35.8069 -83.5650 237° Southwest 406 467 36,000  Level Atlanta Center
03:27PM 35.7428 -83.6703 233° Southwest 401 461 36,000  Level Atlanta Center
03:28PM 35.6742 -83.7806 233° Southwest 401 461 36,000  Level Atlanta Center
03:29PM 35.6075 -83.8906 233° Southwest 406 467 36,000  Level Atlanta Center
03:30PM 35.5492 -83.9878 234° Southwest 406 467 36,000  Level Atlanta Center
03:31PM 35.4806 -84.0950 232° Southwest 406 467 36,000  Level Atlanta Center
03:32PM 35.4136 -84.2019 232° Southwest 406 467 36,000  Level Atlanta Center
03:33PM 35.3486 -84.3086 233° Southwest 406 467 36,000  Level Atlanta Center
03:34PM 35.2817 -84.4153 232° Southwest 401 461 36,000  Level Atlanta Center
03:35PM 35.2125 -84.5242 232° Southwest 401 461 36,000  Level Atlanta Center
03:36PM 35.1472 -84.6281 232° Southwest 401 461 36,000  Level Atlanta Center
03:38PM 35.0800 -84.7342 232° Southwest 401 461 36,000  Level Atlanta Center
03:39PM 34.9978 -84.8628 232° Southwest 401 461 36,000  Level Atlanta Center
03:40PM 34.9281 -84.9661 231° Southwest 396 456 36,000  Level Atlanta Center
03:41PM 34.8461 -85.0511 220° Southwest 396 456 36,000  Level Atlanta Center
03:42PM 34.7639 -85.1411 222° Southwest 396 456 36,000  Level Atlanta Center
03:43PM 34.6858 -85.2361 225° Southwest 396 456 36,000  Level Atlanta Center
03:44PM 34.6244 -85.3386 234° Southwest 396 456 36,000  Level Atlanta Center
03:45PM 34.5583 -85.4486 234° Southwest 396 456 36,000  Level Atlanta Center
03:46PM 34.4925 -85.5561 233° Southwest 401 461 36,000  Level Atlanta Center
03:47PM 34.4283 -85.6656 235° Southwest 401 461 36,000  Level Atlanta Center
03:48PM 34.3644 -85.7753 235° Southwest 401 461 36,000  Level Atlanta Center
03:49PM 34.3003 -85.8744 232° Southwest 401 461 36,000  Level Atlanta Center
03:50PM 34.2339 -85.9836 234° Southwest 401 461 36,000  Level Atlanta Center
03:51PM 34.1675 -86.0900 233° Southwest 401 461 36,000  Level Atlanta Center
03:52PM 34.1031 -86.1964 234° Southwest 401 461 36,000  Level Atlanta Center
03:53PM 34.0386 -86.3000 233° Southwest 401 461 36,000  Level Atlanta Center
03:54PM 33.9761 -86.4036 234° Southwest 401 461 36,000  Level Atlanta Center
03:55PM 33.9114 -86.5069 233° Southwest 401 461 36,000  Level Atlanta Center
03:56PM 33.8489 -86.6100 234° Southwest 396 456 36,000  Level Atlanta Center
03:57PM 33.7842 -86.7106 232° Southwest 396 456 36,000  Level Atlanta Center
03:58PM 33.7214 -86.8136 234° Southwest 396 456 36,000  Level Atlanta Center
03:59PM 33.6583 -86.9139 233° Southwest 391 450 36,000  Level Atlanta Center
04:00PM 33.5936 -87.0114 231° Southwest 386 444 36,000  Level Atlanta Center
04:01PM 33.5286 -87.1089 231° Southwest 386 444 36,000  Level Atlanta Center
04:02PM 33.4633 -87.2061 231° Southwest 386 444 36,000  Level Atlanta Center
04:03PM 33.4003 -87.3033 232° Southwest 386 444 36,000  Level Atlanta Center
04:04PM 33.3308 -87.4078 232° Southwest 386 444 36,000  Level Atlanta Center
04:06PM 33.1928 -87.6117 231° Southwest 376 433 36,000  Level Memphis Center
04:07PM 33.1281 -87.7081 231° Southwest 376 433 36,000  Level Memphis Center
04:08PM 33.0631 -87.8042 231° Southwest 376 433 36,000  Level Memphis Center
04:09PM 32.9983 -87.9000 231° Southwest 376 433 36,000  Level Memphis Center
04:10PM 32.9294 -88.0058 232° Southwest 376 433 36,000  Level Memphis Center
04:11PM 32.8644 -88.1017 231° Southwest 376 433 36,000  Level Memphis Center
04:12PM 32.7992 -88.1997 232° Southwest 376 433 36,000  Level Memphis Center
04:13PM 32.7319 -88.2953 230° Southwest 376 433 36,000  Level Memphis Center
04:14PM 32.6689 -88.3903 232° Southwest 376 433 36,000  Level Memphis Center
04:15PM 32.6036 -88.4856 231° Southwest 376 433 36,000  Level Memphis Center
04:16PM 32.5361 -88.5806 230° Southwest 376 433 36,000  Level Memphis Center
04:17PM 32.4706 -88.6781 231° Southwest 381 438 36,000 -180 Level Memphis Center
04:18PM 32.4008 -88.7703 228° Southwest 381 438 35,700 -600 Descending Memphis Center
04:19PM 32.3247 -88.8578 224° Southwest 381 438 34,800 -960 Descending Memphis Center
04:20PM 32.2419 -88.9378 219° Southwest 381 438 33,800 -1,020 Descending Memphis Center
04:21PM 32.1594 -89.0175 219° Southwest 387 445 32,800 -1,020 Descending Memphis Center
04:22PM 32.0769 -89.0997 220° Southwest 392 451 31,800 -1,020 Descending Memphis Center
04:23PM 31.9422 -89.2267 219° Southwest 395 455 30,200 -1,020 Descending Houston Center
04:25PM 31.8550 -89.3114 220° Southwest 406 467 29,200 -1,020 Descending Houston Center
04:26PM 31.7672 -89.3953 219° Southwest 408 470 28,200 -780 Descending Houston Center
04:27PM 31.6792 -89.4786 219° Southwest 409 471 27,700 -900 Descending Houston Center
04:28PM 31.5750 -89.5778 219° Southwest 415 478 26,400 -1,200 Descending Houston Center
04:29PM 31.4872 -89.6611 219° Southwest 410 472 25,300 -1,140 Descending Houston Center
04:30PM 31.3997 -89.7453 219° Southwest 406 467 24,100 -1,140 Descending Houston Center
04:31PM 31.3122 -89.8267 218° Southwest 403 464 23,000 -1,200 Descending Houston Center
04:32PM 31.2100 -89.8828 205° Southwest 406 467 21,700 -1,560 Descending Houston Center
04:33PM 31.0861 -89.9419 202° Southwest 403 464 19,800 -1,800 Descending Houston Center
04:34PM 30.9886 -89.9889 202° Southwest 385 443 18,100 -1,620 Descending Houston Center
04:35PM 30.8908 -90.0356 202° Southwest 381 438 16,500 -1,620 Descending Houston Center
04:35PM 30.8353 -90.0642 204° Southwest 376 433 15,700 -1,500 Descending Houston Center
04:36PM 30.7950 -90.0811 200° South 375 432 15,000 -1,560 Descending Houston Center
04:36PM 30.7322 -90.1119 203° Southwest 368 423 14,000 -1,500 Descending Houston Center
04:37PM 30.7006 -90.1172 188° South 367 422 13,500 -1,500 Descending Houston Center
04:37PM 30.6364 -90.1161 179° South 342 394 12,500 -1,860 Descending Houston Center
04:38PM 30.5892 -90.1108 175° South 336 387 11,600 -1,680 Descending Houston Center
04:38PM 30.5547 -90.1097 178° South 316 364 11,000 -1,380 Descending Houston Center
04:39PM 30.5053 -90.1067 177° South 312 359 10,200 -1,320 Descending Houston Center
04:39PM 30.4731 -90.1036 175° South 294 338 9,700 -1,020 Descending Houston Center
04:40PM 30.4250 -90.0989 175° South 297 342 9,200 -720 Descending Houston Center
04:40PM 30.3911 -90.0975 178° South 290 334 9,000 -300 Descending Houston Center
04:41PM 30.3447 -90.0917 174° South 293 337 8,900  Descending Houston Center
04:41PM 30.3031 -90.0867 174° South 294 338 9,000 -240 Climbing Houston Center
04:42PM 30.2644 -90.0850 178° South 292 336 8,700 -1,080 Descending Houston Center
04:43PM 30.2197 -90.0950 191° South 277 319 7,800 -2,040 Descending Houston Center
04:43PM 30.1747 -90.1053 191° South 277 319 6,600 -1,800 Descending Houston Center
04:44PM 30.1431 -90.1125 191° South 274 315 6,000 -1,560 Descending Houston Center
04:44PM 30.1003 -90.1261 195° South 276 318 5,000 -1,020 Descending Houston Center
04:45PM 30.0706 -90.1347 194° South 268 308 5,000 -120 Level Houston Center
04:45PM 30.0322 -90.1486 197° South 268 308 4,900  Descending Houston Center
04:46PM 30.0064 -90.1567 195° South 228 262 5,000 -120 Climbing Houston Center
04:46PM 29.9719 -90.1689 197° South 247 284 4,800 -540 Descending Houston Center
04:47PM 29.9486 -90.1758 194° South 209 241 4,500 -960 Descending Houston Center
04:47PM 29.9175 -90.1875 198° South 225 259 3,800 -1,080 Descending Houston Center
04:48PM 29.8931 -90.2044 211° Southwest 187 215 3,300 -1,260 Descending Houston Center